Date,TemperatureHighF,TemperatureAvgF,TemperatureLowF,DewpointHighF,DewpointAvgF,DewpointLowF,HumidityHigh,HumidityAvg,HumidityLow,PressureMaxIn,PressureMinIn,WindSpeedMaxMPH,WindSpeedAvgMPH,GustSpeedMaxMPH,PrecipitationSumIn
2013-1-1,50.4,44.9,39.2,40.0,34.3,27.0,90,68,45,30.28,30.21,7,1,0,0.00
2013-1-2,55.4,47.6,42.2,34.0,29.5,26.0,66,50,42,30.25,30.15,11,2,0,0.00
2013-1-3,53.8,47.0,40.3,39.0,33.3,25.0,74,60,40,30.28,30.17,6,2,0,0.00
2013-1-4,57.0,48.9,45.1,37.0,33.9,31.0,73,57,43,30.30,30.19,7,1,0,0.00
2013-1-5,47.7,44.5,41.6,46.0,41.4,37.0,95,89,74,30.26,30.07,7,1,0,0.58
2013-1-6,52.3,45.5,42.1,47.0,42.7,41.0,96,90,80,30.20,30.07,7,1,0,0.18
2013-1-7,61.9,48.4,41.9,52.0,44.8,40.0,93,87,70,30.26,30.16,9,0,0,0.00
2013-1-8,55.4,49.2,45.0,47.0,44.1,42.0,93,83,71,30.25,30.14,5,1,0,0.01
2013-1-9,53.2,47.0,43.2,48.0,41.5,35.0,89,81,70,30.16,29.98,29,7,0,0.01
2013-1-10,48.9,43.7,40.2,37.0,33.7,30.0,80,68,57,30.19,30.07,23,9,0,0.00
2013-1-11,52.0,44.7,41.5,39.0,33.5,27.0,81,66,53,30.25,30.12,22,7,0,0.00
2013-1-12,48.6,42.8,39.0,37.0,29.8,21.0,76,61,37,30.25,30.15,6,1,0,0.00
2013-1-13,50.6,41.3,35.3,33.0,25.3,14.0,73,54,31,30.28,30.18,5,1,0,0.00
2013-1-14,50.4,43.6,39.1,28.0,20.0,13.0,54,39,30,30.41,30.24,8,1,0,0.00
2013-1-15,50.7,44.0,37.2,37.0,29.7,26.0,88,59,41,30.49,30.40,6,1,0,0.00
2013-1-16,56.2,48.2,41.8,35.0,29.9,24.0,64,51,34,30.44,30.27,10,3,0,0.00
2013-1-17,61.7,53.3,46.0,36.0,31.5,27.0,59,44,34,30.27,30.16,7,2,0,0.00
2013-1-18,63.6,54.5,48.5,36.0,31.8,24.0,60,43,29,30.24,30.15,9,2,0,0.00
2013-1-19,61.8,55.9,51.7,37.0,28.8,22.0,47,36,26,30.26,30.16,6,2,0,0.00
2013-1-20,63.7,56.7,50.7,34.0,28.3,24.0,46,34,27,30.23,30.14,6,2,0,0.00
2013-1-21,62.7,54.3,46.7,40.0,33.3,25.0,64,46,35,30.18,30.10,10,2,0,0.00
2013-1-22,59.6,53.2,49.4,41.0,37.6,34.0,68,56,45,30.13,30.00,9,2,0,0.00
2013-1-23,52.6,49.9,47.0,49.0,44.1,40.0,94,81,65,30.10,29.96,7,1,0,0.42
2013-1-24,56.8,52.2,47.8,52.0,49.1,46.0,94,89,81,30.20,30.07,9,1,0,0.00
2013-1-25,63.2,57.0,51.8,55.0,51.6,48.0,92,82,72,30.19,30.04,9,1,0,0.00
2013-1-26,56.7,51.1,46.0,50.0,42.4,36.0,91,73,53,30.07,29.98,28,9,0,0.00
2013-1-27,54.7,47.3,43.0,40.0,36.2,32.0,79,66,49,30.18,30.06,22,10,0,0.00
2013-1-28,56.0,48.5,44.2,42.0,38.6,34.0,81,69,57,30.28,30.16,22,9,0,0.00
2013-1-29,59.8,50.6,45.7,45.0,40.2,37.0,78,68,53,30.36,30.26,17,4,0,0.00
2013-1-30,65.4,54.0,46.3,47.0,43.6,42.0,88,69,49,30.34,30.26,6,1,0,0.00
2013-1-31,65.0,55.4,47.8,47.0,43.7,40.0,82,65,51,30.29,30.18,9,1,0,0.00
2013-2-1,65.0,56.5,51.2,45.0,42.9,41.0,73,61,48,30.21,30.12,9,1,0,0.00
2013-2-2,59.7,50.2,46.1,49.0,45.1,42.0,90,83,66,30.30,30.21,6,1,0,0.00
2013-2-3,58.6,50.2,45.1,47.0,43.5,39.0,88,78,65,30.25,30.14,17,3,0,0.00
2013-2-4,53.9,46.4,42.1,49.0,44.3,41.0,95,92,82,30.18,30.07,5,0,0,0.01
2013-2-5,55.6,48.7,42.7,46.0,42.5,38.0,94,79,65,30.16,30.07,22,6,0,0.00
2013-2-6,59.0,48.5,42.9,45.0,39.9,37.0,85,73,53,30.19,30.13,17,4,0,0.00
2013-2-7,54.4,47.1,40.8,46.0,41.1,36.0,94,81,52,30.16,30.00,19,3,0,0.33
2013-2-8,55.5,46.1,38.5,41.0,36.5,25.0,93,72,39,30.02,29.94,17,2,0,0.07
2013-2-9,57.9,49.5,44.1,36.0,29.9,24.0,59,48,35,30.09,30.00,7,1,0,0.00
2013-2-10,59.9,48.5,41.1,43.0,35.4,24.0,85,62,41,30.12,30.03,7,1,0,0.00
2013-2-11,63.2,54.5,45.4,44.0,32.4,24.0,81,45,33,30.22,30.08,8,1,0,0.00
2013-2-12,61.7,49.7,41.3,45.0,39.5,36.0,93,70,43,30.37,30.22,5,1,0,0.00
2013-2-13,65.1,50.0,42.2,48.0,41.5,37.0,94,74,50,30.34,30.21,4,0,0,0.00
2013-2-14,67.7,57.2,45.4,46.0,42.6,40.0,86,60,41,30.25,30.16,8,1,0,0.00
2013-2-15,71.7,61.5,53.4,45.0,39.4,35.0,65,45,35,30.27,30.20,13,2,0,0.00
2013-2-16,68.2,59.0,49.9,45.0,42.1,38.0,73,54,42,30.23,30.04,10,1,0,0.00
2013-2-17,63.0,51.6,44.4,47.0,43.0,40.0,89,73,52,30.05,29.97,7,1,0,0.00
2013-2-18,52.1,45.6,40.8,41.0,38.7,36.0,91,77,60,30.03,29.96,15,3,0,0.00
2013-2-19,46.2,42.7,38.6,42.0,36.6,31.0,89,79,65,29.97,29.75,22,6,0,0.42
2013-2-20,57.5,47.6,38.8,40.0,34.0,29.0,74,60,43,30.07,29.86,20,6,0,0.00
2013-2-21,60.4,50.3,42.7,37.0,34.0,29.0,76,55,35,30.17,30.05,23,5,0,0.00
2013-2-22,64.5,51.8,43.4,46.0,39.1,35.0,79,63,34,30.25,30.17,19,4,0,0.00
2013-2-23,55.3,49.3,45.6,45.0,36.4,26.0,88,63,42,30.25,30.16,20,8,0,0.00
2013-2-24,62.5,52.8,44.6,39.0,29.0,21.0,72,41,28,30.25,30.17,6,2,0,0.00
2013-2-25,65.2,51.8,43.2,44.0,39.3,32.0,87,64,43,30.26,30.17,10,2,0,0.00
2013-2-26,68.4,54.6,44.2,41.0,32.9,25.0,68,46,26,30.22,30.14,6,1,0,0.00
2013-2-27,70.2,54.4,45.5,48.0,40.0,34.0,77,59,39,30.36,30.20,18,3,0,0.00
2013-2-28,69.1,55.9,47.9,52.0,48.5,44.0,89,77,55,30.44,30.36,10,1,0,0.00
2013-3-1,69.3,58.8,47.2,55.0,48.3,45.0,94,70,45,30.43,30.24,7,1,0,0.00
2013-3-2,67.2,59.3,52.3,53.0,49.2,46.0,82,70,58,30.24,30.06,15,1,0,0.00
2013-3-3,65.2,52.9,45.0,49.0,45.5,42.0,90,77,53,30.09,30.02,23,3,0,0.00
2013-3-4,60.4,47.4,40.9,47.0,42.5,38.0,92,84,60,30.15,30.06,12,1,0,0.00
2013-3-5,49.8,45.6,40.3,45.0,40.9,36.0,93,83,75,30.07,29.83,20,6,0,0.19
2013-3-6,52.3,48.4,43.8,48.0,41.7,38.0,94,78,63,30.07,29.83,32,6,0,0.16
2013-3-7,51.8,46.7,42.2,44.0,41.1,38.0,92,81,63,30.00,29.87,7,1,0,0.02
2013-3-8,57.0,49.9,44.7,42.0,38.4,33.0,80,65,50,30.04,29.84,35,8,0,0.00
2013-3-9,67.4,54.1,42.7,46.0,40.1,36.0,82,62,37,30.30,30.05,11,2,0,0.00
2013-3-10,68.3,55.6,46.8,47.0,41.0,35.0,83,60,34,30.35,30.24,6,1,0,0.00
2013-3-11,71.4,56.6,45.4,47.0,42.8,38.0,87,62,39,30.25,30.09,8,1,0,0.00
2013-3-12,71.8,56.3,43.4,53.0,47.4,41.0,93,75,42,30.16,30.07,9,1,0,0.00
2013-3-13,76.7,61.4,47.2,55.0,50.0,45.0,93,69,42,30.16,30.06,9,1,0,0.00
2013-3-14,70.1,58.1,50.1,55.0,46.7,36.0,92,69,29,30.16,30.07,18,2,0,0.00
2013-3-15,72.6,57.0,48.6,54.0,45.9,41.0,82,68,46,30.13,30.03,16,1,0,0.00
2013-3-16,72.5,56.6,45.2,52.0,44.3,39.0,95,68,34,30.11,30.01,32,6,0,0.00
2013-3-17,66.5,56.8,48.9,46.0,40.3,35.0,72,55,45,30.15,30.04,26,5,0,0.00
2013-3-18,64.6,54.0,45.1,50.0,43.0,30.0,83,67,35,30.12,30.03,16,1,0,0.00
2013-3-19,61.8,52.3,45.3,50.0,43.0,29.0,88,71,34,30.14,30.05,5,1,0,0.04
2013-3-20,59.8,50.8,46.0,55.0,47.2,42.0,93,87,69,30.15,30.07,15,3,0,0.13
2013-3-21,63.5,53.0,44.3,47.0,41.3,38.0,86,66,45,30.13,30.02,19,4,0,0.00
2013-3-22,69.2,55.8,47.5,41.0,32.7,23.0,74,44,21,30.12,30.03,11,2,0,0.00
2013-3-23,65.2,56.5,50.7,41.0,33.6,26.0,68,43,29,30.14,30.04,9,1,0,0.00
2013-3-24,67.0,55.0,46.7,48.0,43.4,38.0,80,66,46,30.09,29.97,10,1,0,0.00
2013-3-25,59.9,49.8,43.5,47.0,42.2,39.0,87,76,59,30.02,29.94,20,2,0,0.00
2013-3-26,64.4,51.4,43.8,50.0,44.1,40.0,88,77,61,30.01,29.93,7,0,0,0.00
2013-3-27,54.9,51.4,47.8,52.0,48.3,43.0,92,89,81,30.02,29.94,13,3,0,0.00
2013-3-28,67.6,54.9,50.8,54.0,50.6,49.0,94,86,55,30.09,30.01,10,2,0,0.01
2013-3-29,72.1,59.7,50.9,54.0,50.6,49.0,93,73,53,30.09,30.01,14,2,0,0.00
2013-3-30,64.1,55.3,52.2,52.0,49.6,46.0,93,82,53,30.08,29.97,21,4,0,0.17
2013-3-31,59.3,53.7,51.4,54.0,51.3,50.0,95,91,78,30.07,29.99,17,4,0,0.15
2013-4-1,64.6,55.1,50.6,53.0,49.9,46.0,96,84,57,30.16,30.05,11,2,0,0.22
2013-4-2,59.0,51.6,47.8,52.0,47.0,45.0,89,85,77,30.18,30.15,2,0,0,0.00
2013-5-27,54.2,53.8,53.4,52.0,52.0,52.0,93,92,92,30.03,29.99,7,3,0,0.03
2013-5-28,70.0,59.9,53.0,57.0,52.5,46.0,95,78,57,30.00,29.92,14,3,0,0.01
2013-5-29,70.4,61.0,55.4,54.0,48.8,39.0,85,65,39,29.96,29.89,21,5,0,0.00
2013-5-30,75.1,61.9,49.8,50.0,45.8,35.0,86,59,25,29.98,29.92,19,2,0,0.00
2013-5-31,89.0,67.9,50.6,55.0,49.1,44.0,85,56,21,30.01,29.90,9,1,0,0.00
2013-6-1,91.6,71.5,55.8,57.0,50.8,46.0,72,51,28,29.93,29.75,11,2,0,0.00
2013-6-2,80.0,63.2,50.9,56.0,49.9,47.0,87,65,38,29.77,29.65,15,2,0,0.00
2013-6-3,61.5,55.6,49.6,51.0,49.5,47.0,93,80,68,29.86,29.70,30,8,0,0.00
2013-6-4,62.1,54.8,49.7,52.0,49.6,47.0,92,83,70,29.97,29.86,15,3,0,0.00
2013-6-5,66.6,55.9,49.6,53.0,49.8,47.0,91,81,62,30.00,29.91,11,2,0,0.00
2013-6-6,69.0,57.0,48.8,55.0,50.5,47.0,93,80,60,29.95,29.84,8,1,0,0.00
2013-6-7,85.0,62.8,49.5,63.0,53.9,48.0,95,75,46,29.89,29.71,5,1,0,0.00
2013-6-8,83.4,67.1,57.9,60.0,53.7,51.0,84,63,45,29.80,29.70,24,5,0,0.00
2013-6-9,59.0,56.1,53.5,53.0,52.4,51.0,93,87,79,29.89,29.79,22,6,0,0.01
2013-6-10,60.1,55.5,52.5,53.0,51.6,50.0,94,87,75,29.96,29.80,15,4,0,0.08
2013-6-11,74.9,61.6,53.6,58.0,52.6,45.0,90,74,42,29.99,29.88,10,1,0,0.00
2013-6-12,77.3,62.5,50.2,53.0,47.2,42.0,83,60,32,29.98,29.90,21,2,0,0.00
2013-6-13,78.7,63.9,49.2,52.0,46.6,43.0,84,56,29,30.08,29.98,18,2,0,0.00
2013-6-14,82.5,67.5,53.9,54.0,48.0,44.0,75,53,27,29.98,29.81,13,2,0,0.00
2013-6-15,73.1,56.8,47.6,55.0,48.9,45.0,92,76,48,29.98,29.81,16,3,0,0.00
2013-6-16,78.6,63.5,49.8,55.0,48.9,45.0,89,63,38,30.07,29.98,23,4,0,0.00
2013-6-17,71.9,61.5,52.4,55.0,49.2,-99.9,82,67,54,30.08,30.00,24,-5,0,0.00
2013-6-18,65.1,59.0,54.6,51.0,47.3,45.0,85,67,50,30.02,29.94,27,12,0,0.00
2013-6-19,72.4,61.4,53.6,50.0,46.2,43.0,74,58,43,30.05,29.97,29,9,0,0.00
2013-6-20,78.4,64.0,51.9,53.0,46.0,40.0,76,54,33,30.00,29.91,23,4,0,0.00
2013-6-21,82.4,65.8,51.7,55.0,49.2,42.0,84,58,24,29.97,29.90,14,2,0,0.00
2013-6-22,86.9,67.9,54.0,55.0,49.1,40.0,78,54,27,29.92,29.81,24,4,0,0.00
2013-6-23,65.5,60.1,55.5,58.0,55.1,52.0,93,84,74,29.86,29.81,21,5,0,0.00
2013-6-24,62.0,57.0,54.1,56.0,54.3,52.0,94,90,78,29.91,29.79,20,3,0,0.11
2013-6-25,61.1,58.7,56.4,60.0,57.4,55.0,96,95,93,29.99,29.88,27,7,0,2.34
2013-6-26,81.7,67.5,58.2,66.0,61.1,57.0,97,81,54,30.05,29.97,14,2,0,0.00
2013-6-27,87.1,71.6,57.9,65.0,59.5,54.0,95,69,33,30.07,30.00,14,2,0,0.00
2013-6-28,95.2,78.7,62.6,67.0,59.2,50.0,83,55,25,30.02,29.87,21,3,0,0.00
2013-6-29,95.8,79.3,63.1,66.0,56.9,51.0,73,49,25,29.89,29.76,21,3,0,0.00
2013-6-30,91.4,73.9,60.6,64.0,58.6,53.0,78,61,34,29.82,29.73,11,1,0,0.00
2013-7-1,89.6,71.0,57.3,65.0,58.6,54.0,89,67,41,29.83,29.78,14,1,0,0.00
2013-7-2,79.7,70.9,61.6,59.0,55.8,53.0,78,60,39,29.90,29.80,25,7,0,0.00
2013-7-3,87.1,70.3,56.5,64.0,57.9,54.0,90,67,43,29.89,29.75,16,2,0,0.00
2013-7-4,94.2,75.6,63.5,63.0,56.0,44.0,80,54,25,29.77,29.64,29,5,0,0.00
2013-7-5,68.8,61.5,51.2,56.0,51.8,48.0,90,71,52,29.75,29.68,14,3,0,0.00
2013-7-6,64.8,53.2,50.2,53.0,49.7,48.0,94,88,65,29.81,29.73,24,10,0,0.00
2013-7-7,70.8,58.2,51.2,56.0,51.7,49.0,93,80,56,29.86,29.78,16,4,0,0.00
2013-7-8,78.7,59.4,51.9,56.0,51.5,47.0,93,78,33,29.97,29.86,10,2,0,0.00
2013-7-9,89.2,66.0,51.0,62.0,55.0,49.0,94,71,31,30.03,29.92,10,1,0,0.00
2013-7-10,74.4,60.5,50.7,57.0,52.1,48.0,91,76,49,29.97,29.89,13,2,0,0.00
2013-7-11,69.8,55.8,49.2,56.0,50.7,47.0,93,84,60,29.94,29.87,17,2,0,0.00
2013-7-12,71.1,55.9,51.2,57.0,51.0,48.0,93,84,60,29.95,29.87,15,4,0,0.00
2013-7-13,74.5,59.6,50.7,58.0,52.1,48.0,93,78,53,29.96,29.89,17,4,0,0.00
2013-7-14,75.5,59.1,49.8,58.0,52.0,47.0,93,79,54,29.99,29.88,8,1,0,0.00
2013-7-15,65.3,54.8,49.4,54.0,50.4,47.0,93,85,66,29.92,29.84,14,2,0,0.01
2013-7-16,59.0,55.5,51.5,56.0,52.2,49.0,93,88,85,30.03,29.86,12,3,0,0.00
2013-7-17,72.6,61.2,53.4,59.0,54.5,51.0,91,80,60,30.09,30.02,11,2,0,0.00
2013-7-18,78.2,60.6,49.2,59.0,53.1,48.0,95,78,49,30.05,29.93,8,1,0,0.01
2013-7-19,76.1,60.5,50.9,60.0,53.7,49.0,95,80,56,29.94,29.81,15,2,0,0.00
2013-7-20,71.0,57.5,50.5,57.0,51.9,49.0,95,83,59,29.85,29.73,17,3,0,0.00
2013-7-21,76.7,62.6,51.0,55.0,51.6,49.0,93,70,44,29.86,29.77,21,5,0,0.00
2013-7-22,77.0,65.1,57.2,59.0,56.0,52.0,91,74,48,29.95,29.87,20,5,0,0.00
2013-7-23,76.3,65.3,58.5,60.0,56.2,53.0,86,73,50,29.99,29.92,10,1,0,0.00
2013-7-24,84.7,67.0,55.1,62.0,56.5,52.0,89,71,46,29.98,29.89,7,1,0,0.00
2013-7-25,76.0,61.5,52.6,59.0,53.6,50.0,92,77,54,30.01,29.91,10,2,0,0.00
2013-7-26,74.2,60.4,51.7,59.0,53.7,50.0,93,80,59,30.09,29.99,11,2,0,0.00
2013-7-27,72.6,58.8,51.5,58.0,53.1,50.0,94,82,59,30.03,29.86,19,3,0,0.00
2013-7-28,64.6,55.0,51.4,53.0,51.1,49.0,94,87,66,29.88,29.81,24,5,0,0.00
2013-7-29,61.4,55.2,52.1,54.0,51.5,50.0,92,87,75,30.02,29.84,25,8,0,0.00
2013-7-30,66.3,56.7,51.7,56.0,51.8,50.0,95,84,65,30.11,30.02,18,3,0,0.00
2013-7-31,78.7,59.0,50.4,60.0,52.3,49.0,94,80,47,30.09,29.99,12,2,0,0.00
2013-8-1,78.6,63.3,52.7,58.0,53.5,49.0,89,72,46,30.05,29.95,5,1,0,0.00
2013-8-2,74.0,61.5,51.8,57.0,53.1,49.0,94,75,54,29.96,29.88,18,2,0,0.00
2013-8-3,65.5,55.4,49.3,55.0,50.8,47.0,94,85,67,29.97,29.90,18,6,0,0.01
2013-8-4,68.7,56.1,50.6,56.0,51.3,48.0,93,84,62,30.00,29.95,16,2,0,0.00
2013-8-5,72.3,58.1,50.5,56.0,51.8,48.0,93,81,55,30.02,29.92,7,1,0,0.00
2013-8-6,69.3,57.8,50.8,57.0,52.2,48.0,92,82,64,30.04,29.97,12,2,0,0.00
2013-8-7,62.4,57.6,54.8,56.0,54.2,52.0,92,88,77,30.11,30.04,14,3,0,0.00
2013-8-8,72.3,60.5,52.6,58.0,54.4,50.0,94,81,54,30.04,29.93,13,1,0,0.00
2013-8-9,71.8,59.4,51.6,57.0,53.3,49.0,93,81,60,29.99,29.91,12,1,0,0.00
2013-8-10,77.0,62.4,54.8,60.0,55.5,52.0,91,79,55,30.03,29.98,10,1,0,0.00
2013-8-11,77.4,61.4,53.4,59.0,54.6,51.0,95,80,53,30.02,29.92,6,1,0,0.00
2013-8-12,76.8,60.1,51.0,59.0,53.5,49.0,94,80,50,30.00,29.92,12,2,0,0.00
2013-8-13,88.4,66.1,51.4,61.0,54.5,49.0,94,70,34,29.99,29.89,7,1,0,0.01
2013-8-14,85.1,67.1,54.9,61.0,54.9,49.0,87,68,33,29.96,29.88,11,1,0,0.00
2013-8-15,87.2,69.7,58.3,66.0,60.9,56.0,94,76,49,29.95,29.89,9,1,0,0.00
2013-8-16,66.5,60.9,57.0,60.0,58.2,55.0,94,91,80,29.97,29.92,4,0,0,0.00
2013-11-4,72.7,60.9,60.2,35.0,29.4,-99.9,38,33,19,30.07,29.95,9,-25,0,0.00
2013-11-5,70.8,62.2,54.2,39.0,35.1,30.0,48,37,30,30.21,30.06,7,1,0,0.00
2013-11-6,70.8,62.5,54.2,39.0,37.2,33.0,50,40,31,30.26,30.15,7,1,0,0.00
2013-11-7,74.3,63.2,54.6,49.0,42.1,37.0,76,48,34,30.16,30.06,9,1,0,0.00
2013-11-8,73.3,57.4,48.7,54.0,48.1,43.0,94,73,44,30.07,29.94,16,1,0,0.00
2013-11-9,69.6,56.6,47.8,49.0,45.3,41.0,87,68,45,30.04,29.97,14,2,0,0.00
2013-11-10,61.7,53.3,48.9,50.0,47.3,45.0,89,80,65,30.11,30.02,15,3,0,0.00
2013-11-11,63.8,54.7,46.5,53.0,47.6,44.0,93,78,57,30.18,30.08,5,0,0,0.00
2013-11-12,67.1,60.0,54.4,52.0,48.0,44.0,76,65,54,30.26,30.15,7,1,0,0.00
2013-11-13,77.5,60.4,52.5,56.0,51.4,48.0,89,73,47,30.24,30.09,5,0,0,0.00
2013-11-14,61.7,54.2,46.4,54.0,46.7,35.0,95,78,41,30.10,29.86,27,4,0,0.01
2013-11-15,66.5,55.9,48.6,44.0,40.8,37.0,77,58,40,29.87,29.73,22,2,0,0.00
2013-11-16,64.1,53.5,46.2,49.0,44.2,39.0,84,72,51,29.92,29.76,16,3,0,0.00
2013-11-17,60.4,51.1,45.6,48.0,45.1,41.0,93,80,63,30.09,29.92,10,1,0,0.00
2013-11-18,56.8,50.3,45.7,48.0,45.4,41.0,91,83,70,30.15,30.08,11,2,0,0.00
2013-11-19,55.1,52.7,50.5,54.0,50.8,47.0,95,93,86,30.10,29.94,17,5,0,1.28
2013-11-20,57.9,54.0,49.1,55.0,52.3,47.0,95,94,84,29.94,29.85,15,4,0,0.68
2013-11-21,63.4,54.5,48.8,48.0,36.4,21.0,95,57,25,30.00,29.89,11,1,0,0.00
2013-11-22,72.1,61.6,53.3,27.0,19.1,12.0,29,20,14,30.02,29.91,11,2,0,0.00
2013-11-23,66.5,54.7,49.4,37.0,30.5,26.0,59,41,26,30.10,29.96,11,2,0,0.00
2013-11-24,59.0,52.3,44.5,44.0,40.3,36.0,91,65,50,30.25,30.09,8,0,0,0.00
2013-11-25,62.3,53.6,46.5,46.0,41.7,38.0,80,65,52,30.33,30.25,5,1,0,0.00
2013-11-26,61.8,54.5,50.1,43.0,39.9,36.0,69,58,47,30.27,30.05,6,1,0,0.00
2013-11-27,61.0,55.0,49.9,45.0,42.1,39.0,71,62,52,30.04,29.85,5,1,0,0.00
2013-11-28,67.7,60.1,54.8,44.0,40.8,38.0,60,50,39,30.06,29.87,10,1,0,0.00
2013-11-29,67.6,57.4,49.4,46.0,43.0,40.0,79,60,44,30.21,30.06,3,0,0,0.00
2013-11-30,64.7,55.3,48.2,48.0,44.7,42.0,84,68,52,30.27,30.19,7,0,0,0.00
2013-12-1,66.5,57.6,50.3,49.0,44.7,42.0,77,63,49,30.34,30.22,3,0,0,0.00
2013-12-2,61.3,54.7,48.3,52.0,47.6,43.0,88,77,63,30.22,29.95,23,4,0,0.00
2013-12-3,55.4,48.4,44.2,51.0,35.6,25.0,86,62,47,29.95,29.84,26,9,0,0.00
2013-12-4,50.1,43.8,40.3,29.0,23.3,16.0,58,45,35,30.08,29.95,6,1,0,0.00
2013-12-5,68.5,43.4,36.4,37.0,22.0,13.0,62,43,29,30.17,30.08,5,0,0,0.00
2013-12-6,51.6,42.9,35.1,47.0,35.3,26.0,91,75,54,30.20,29.92,21,3,0,1.16
2013-12-7,47.4,42.5,37.1,41.0,29.4,24.0,83,61,46,30.26,29.93,23,6,0,0.00
2013-12-8,42.3,37.5,32.3,28.0,24.3,19.0,77,60,46,30.33,30.24,10,1,0,0.00
2013-12-9,46.9,39.4,33.9,26.0,21.1,17.0,59,49,38,30.43,30.32,15,2,0,0.00
2013-12-10,52.6,43.3,35.7,30.0,26.1,24.0,67,52,39,30.43,30.21,6,2,0,0.00
2013-12-11,55.8,47.2,40.8,32.0,28.7,24.0,64,50,37,30.26,30.19,8,2,0,0.00
2013-12-12,61.1,50.2,45.4,35.0,32.3,29.0,64,51,37,30.27,30.17,5,1,0,0.00
2013-12-13,55.1,48.0,39.1,42.0,38.0,33.0,91,70,46,30.33,30.22,5,0,0,0.00
2013-12-14,59.7,51.5,42.1,39.0,36.0,32.0,79,57,43,30.40,30.31,7,1,0,0.00
2013-12-15,59.6,53.5,48.3,38.0,35.9,32.0,59,52,42,30.36,30.24,8,2,0,0.00
2013-12-16,66.3,58.7,52.2,38.0,34.6,30.0,54,41,32,30.25,30.13,9,3,0,0.00
2013-12-17,63.9,58.4,53.5,40.0,36.4,33.0,55,44,35,30.18,30.02,9,2,0,0.00
2013-12-18,60.2,54.2,47.6,46.0,39.2,32.0,85,59,38,30.03,29.74,26,3,0,0.00
2013-12-19,61.6,51.3,46.2,40.0,32.3,17.0,78,51,28,29.93,29.70,28,5,0,0.00
2013-12-20,62.3,51.4,45.6,37.0,26.3,15.0,55,38,26,30.02,29.92,5,0,0,0.00
2013-12-21,63.3,53.1,46.8,49.0,45.5,39.0,91,76,61,30.08,29.95,15,2,0,0.00
2013-12-22,63.1,54.9,46.1,45.0,38.9,35.0,88,56,42,30.28,30.08,5,0,0,0.00
2013-12-23,62.5,55.5,50.3,41.0,38.4,36.0,61,53,44,30.40,30.28,6,1,0,0.00
2013-12-24,67.6,57.6,47.3,45.0,40.8,38.0,74,54,43,30.34,30.20,3,0,0,0.00
2013-12-25,65.5,56.9,50.4,42.0,38.3,34.0,66,51,38,30.30,30.21,11,2,0,0.00
2013-12-26,65.8,59.6,55.1,38.0,34.9,31.0,50,40,32,30.26,30.17,8,2,0,0.00
2013-12-27,59.5,54.8,50.8,39.0,36.8,31.0,62,51,35,30.24,30.12,12,2,0,0.00
2013-12-28,64.0,54.2,44.5,38.0,34.5,26.0,67,49,25,30.15,30.03,6,0,0,0.00
2013-12-29,65.7,57.6,51.2,34.0,26.9,20.0,48,32,21,30.18,30.09,6,2,0,0.00
2013-12-30,59.8,53.4,48.2,41.0,36.0,27.0,63,52,35,30.25,30.17,7,1,0,0.00
2013-12-31,61.4,52.1,44.1,40.0,34.7,31.0,74,53,36,30.27,30.16,2,0,0,0.00
2014-1-1,64.0,53.2,44.1,44.0,35.1,29.0,74,52,35,30.21,30.13,3,0,0,0.00
2014-1-2,65.1,57.9,51.0,37.0,34.6,31.0,52,42,33,30.19,30.06,7,1,0,0.00